Time;durP1;ratioP1;P1;durP2;ratioP2;P2;SDS_P1;SDS_P2;PMS_P1;PMS_P2;Temp;Humidity;BMP_temperature;BMP_pressure;BME280_temperature;BME280_humidity;BME280_pressure;Samples;Min_cycle;Max_cycle;Signal;HPM_P1;HPM_P2
2023/01/11 00:01:33;;;;;;;2.87;2.40;;;;;;;4.81;66.32;94292.13;4988070;28;20277;-65
2023/01/11 00:03:59;;;;;;;2.63;2.40;;;;;;;4.76;66.24;94294.31;5006728;28;20254;-65
2023/01/11 00:06:24;;;;;;;3.23;2.50;;;;;;;4.70;66.63;94296.63;5010005;28;20179;-65
2023/01/11 00:08:49;;;;;;;2.47;2.27;;;;;;;4.58;66.43;94306.31;5002386;28;20214;-65
2023/01/11 00:11:16;;;;;;;3.70;2.40;;;;;;;4.45;67.10;94305.75;5007176;28;20226;-66
2023/01/11 00:13:44;;;;;;;2.37;2.10;;;;;;;4.44;67.24;94307.53;5010628;28;20289;-66
2023/01/11 00:16:10;;;;;;;3.53;2.47;;;;;;;4.35;67.55;94305.69;5006828;28;20270;-65
2023/01/11 00:18:36;;;;;;;2.73;2.20;;;;;;;4.50;66.86;94312.19;5019405;28;20210;-67
2023/01/11 00:21:05;;;;;;;3.30;2.47;;;;;;;4.36;67.41;94316.00;5006705;28;20321;-67
2023/01/11 00:23:35;;;;;;;3.47;2.30;;;;;;;4.45;67.28;94318.75;5003274;28;20230;-66
2023/01/11 00:26:06;;;;;;;2.50;2.30;;;;;;;4.49;67.11;94314.91;5003410;28;20235;-66
2023/01/11 00:28:31;;;;;;;2.67;2.33;;;;;;;4.54;66.91;94323.16;4999535;28;20224;-66
2023/01/11 00:30:57;;;;;;;2.60;2.40;;;;;;;4.36;67.50;94321.19;4993067;28;20183;-67
2023/01/11 00:33:22;;;;;;;2.60;2.00;;;;;;;4.30;67.63;94331.28;5002285;28;20196;-67
2023/01/11 00:35:51;;;;;;;2.50;2.00;;;;;;;4.33;67.49;94329.25;5007419;28;20222;-66
2023/01/11 00:38:42;;;;;;;2.40;2.20;;;;;;;4.45;67.85;94329.97;5018600;28;20244;-66
2023/01/11 00:49:15;;;;;;;2.20;2.00;;;;;;;4.25;68.21;94329.09;4997742;28;20265;-65
2023/01/11 00:51:40;;;;;;;2.20;2.00;;;;;;;4.14;68.10;94334.34;5016786;28;20183;-66
2023/01/11 00:54:05;;;;;;;2.13;1.93;;;;;;;4.28;67.98;94330.63;5003538;28;20215;-66
2023/01/11 00:56:31;;;;;;;2.50;2.30;;;;;;;4.31;67.77;94333.78;5017153;28;20231;-65
2023/01/11 00:58:56;;;;;;;2.80;2.40;;;;;;;4.35;67.30;94331.72;5004586;28;20310;-67
2023/01/11 01:01:22;;;;;;;2.73;2.30;;;;;;;4.35;67.38;94344.72;5020646;28;20218;-67
2023/01/11 01:03:47;;;;;;;2.50;2.30;;;;;;;4.32;67.16;94332.81;4994736;28;20242;-67
2023/01/11 01:06:12;;;;;;;2.10;1.90;;;;;;;4.29;67.90;94340.88;5020177;28;20194;-67
2023/01/11 01:08:38;;;;;;;2.33;2.13;;;;;;;4.19;68.17;94340.00;4998736;28;20219;-67
2023/01/11 01:11:03;;;;;;;2.93;2.63;;;;;;;4.21;68.14;94338.09;5011618;28;20274;-67
2023/01/11 01:16:13;;;;;;;2.60;2.40;;;;;;;3.84;68.41;94337.75;5000717;28;20237;-68
2023/01/11 01:18:38;;;;;;;3.13;2.90;;;;;;;3.96;68.71;94340.16;5012833;28;20186;-67
2023/01/11 01:21:04;;;;;;;3.07;2.73;;;;;;;4.05;68.32;94346.38;5000732;28;20226;-67
2023/01/11 01:23:29;;;;;;;3.17;2.87;;;;;;;3.98;67.93;94340.88;5006902;28;20302;-66
2023/01/11 01:25:55;;;;;;;4.63;4.23;;;;;;;4.04;67.75;94338.72;5003792;28;20307;-68
2023/01/11 01:28:20;;;;;;;4.97;4.50;;;;;;;4.10;68.38;94343.41;4990221;28;20223;-66
2023/01/11 01:30:50;;;;;;;4.87;4.43;;;;;;;4.07;68.51;94354.88;5007410;28;20195;-67
2023/01/11 01:33:15;;;;;;;5.17;4.73;;;;;;;4.15;68.12;94352.47;5024424;28;20204;-68
2023/01/11 01:35:41;;;;;;;5.97;5.47;;;;;;;3.92;68.96;94343.97;4994894;28;20227;-68
2023/01/11 01:38:06;;;;;;;5.63;5.13;;;;;;;4.01;68.47;94351.94;4999201;28;20223;-68
2023/01/11 01:40:32;;;;;;;5.97;5.37;;;;;;;3.95;68.55;94355.88;5007120;28;20273;-67
2023/01/11 01:42:57;;;;;;;6.00;5.40;;;;;;;3.98;68.31;94353.88;5002003;28;20257;-67
2023/01/11 01:45:26;;;;;;;6.70;5.67;;;;;;;4.01;68.44;94349.34;5006508;28;20185;-67
2023/01/11 01:48:02;;;;;;;6.30;5.70;;;;;;;3.92;68.02;94350.94;5021800;28;20219;-67
2023/01/11 01:50:39;;;;;;;6.13;5.63;;;;;;;3.88;68.42;94358.19;5002582;28;20309;-66
2023/01/11 01:53:35;;;;;;;7.37;6.57;;;;;;;3.69;69.16;94348.50;4988533;28;20227;-67
2023/01/11 01:56:06;;;;;;;6.37;5.77;;;;;;;3.83;68.74;94349.94;4988822;28;20289;-67
2023/01/11 01:58:37;;;;;;;6.67;5.97;;;;;;;3.70;68.70;94355.31;4987708;28;20286;-66
2023/01/11 02:03:48;;;;;;;8.70;7.37;;;;;;;3.63;68.95;94366.34;5008059;28;20353;-66
2023/01/11 02:06:13;;;;;;;9.00;7.37;;;;;;;3.58;69.35;94360.72;5006805;28;20191;-66
2023/01/11 02:08:43;;;;;;;7.77;6.60;;;;;;;3.64;69.17;94362.81;5015274;28;20223;-66
2023/01/11 02:11:28;;;;;;;7.47;6.30;;;;;;;3.63;69.43;94363.75;5022863;28;20219;-67
2023/01/11 02:13:58;;;;;;;7.80;7.00;;;;;;;3.63;69.25;94356.78;5000965;28;20236;-67
2023/01/11 02:16:24;;;;;;;8.87;7.50;;;;;;;3.76;68.92;94375.63;4999751;28;20255;-67
2023/01/11 02:18:50;;;;;;;7.17;6.47;;;;;;;3.76;69.10;94378.22;4987311;28;20242;-68
2023/01/11 02:21:24;;;;;;;7.30;6.40;;;;;;;3.69;68.84;94381.47;5002810;28;20199;-67
2023/01/11 02:24:48;;;;;;;7.33;6.53;;;;;;;3.65;69.15;94390.47;5007454;28;20222;-66
2023/01/11 02:27:38;;;;;;;7.07;5.90;;;;;;;3.61;69.08;94394.25;4932374;29;20233;-66
2023/01/11 02:30:32;;;;;;;8.13;6.37;;;;;;;3.68;69.28;94411.00;4929883;29;20217;-66
2023/01/11 02:33:15;;;;;;;6.17;5.57;;;;;;;3.78;69.21;94421.50;4911123;29;20265;-66
2023/01/11 02:35:56;;;;;;;6.30;5.70;;;;;;;3.80;69.23;94410.03;4901396;29;20245;-67
2023/01/11 02:38:28;;;;;;;6.70;5.47;;;;;;;3.71;69.76;94411.56;4899729;29;20308;-67
2023/01/11 02:41:24;;;;;;;5.53;5.03;;;;;;;3.72;69.51;94415.84;4901553;29;20230;-67
2023/01/11 02:46:52;;;;;;;5.63;5.07;;;;;;;3.74;69.25;94426.09;4914241;29;20240;-67
2023/01/11 02:49:34;;;;;;;5.90;5.23;;;;;;;3.81;68.88;94419.47;4900477;29;20308;-67
2023/01/11 02:52:09;;;;;;;5.13;4.63;;;;;;;3.80;69.07;94423.03;4911730;29;20261;-67
2023/01/11 02:54:38;;;;;;;5.27;4.87;;;;;;;3.83;68.90;94425.38;4902644;29;20193;-67
2023/01/11 02:57:05;;;;;;;4.77;4.30;;;;;;;3.82;68.97;94430.69;4919432;29;20229;-67
2023/01/11 02:59:33;;;;;;;5.50;5.00;;;;;;;3.89;68.87;94427.47;4914605;29;20221;-67
2023/01/11 03:01:59;;;;;;;5.10;4.60;;;;;;;3.92;68.56;94432.41;4908874;29;20691;-67
2023/01/11 03:04:30;;;;;;;4.70;4.27;;;;;;;3.91;68.56;94437.75;4907629;29;20242;-67
2023/01/11 03:07:13;;;;;;;4.93;4.47;;;;;;;3.93;68.61;94431.47;4896787;29;20250;-67
2023/01/11 03:10:00;;;;;;;4.90;4.50;;;;;;;3.96;68.65;94431.22;4975235;28;20291;-67
2023/01/11 03:12:51;;;;;;;5.07;4.67;;;;;;;3.97;68.15;94432.84;5009202;28;20240;-67
2023/01/11 03:15:54;;;;;;;5.07;4.57;;;;;;;3.93;68.66;94434.06;5010458;28;20214;-67
2023/01/11 03:18:38;;;;;;;4.50;4.10;;;;;;;3.96;68.71;94433.81;5017735;28;20246;-67
2023/01/11 03:21:13;;;;;;;4.47;4.07;;;;;;;3.94;68.37;94424.47;5010505;28;20314;-67
2023/01/11 03:23:58;;;;;;;4.63;4.23;;;;;;;3.98;68.87;94423.25;5019060;28;20262;-67
2023/01/11 03:26:48;;;;;;;4.40;4.00;;;;;;;3.70;68.13;94425.53;5026193;28;20253;-67
2023/01/11 03:29:31;;;;;;;4.87;4.47;;;;;;;3.81;68.88;94419.47;5006916;28;20296;-66
2023/01/11 03:32:13;;;;;;;5.33;4.83;;;;;;;3.88;68.55;94420.63;5018862;28;20276;-66
2023/01/11 03:34:54;;;;;;;4.53;4.13;;;;;;;3.93;68.40;94418.47;5011452;28;20225;-67
2023/01/11 03:37:32;;;;;;;5.47;5.03;;;;;;;3.83;68.67;94419.34;5005156;28;20292;-67
2023/01/11 03:40:23;;;;;;;5.50;5.00;;;;;;;3.87;68.92;94421.53;4979394;28;20255;-66
2023/01/11 03:43:28;;;;;;;6.50;5.60;;;;;;;3.85;69.23;94431.28;5020267;28;20197;-66
2023/01/11 03:45:53;;;;;;;5.77;5.27;;;;;;;3.90;69.16;94426.53;5010692;28;20198;-66
2023/01/11 03:48:24;;;;;;;6.10;5.50;;;;;;;3.84;68.90;94427.00;4999467;28;20202;-67
2023/01/11 03:50:54;;;;;;;6.00;5.50;;;;;;;3.81;69.36;94431.63;5004854;28;20278;-66
2023/01/11 03:53:22;;;;;;;6.40;5.63;;;;;;;3.89;69.35;94424.03;5007290;28;20219;-66
2023/01/11 03:55:53;;;;;;;6.90;6.17;;;;;;;3.91;69.18;94435.97;5006742;28;20330;-66
2023/01/11 03:58:19;;;;;;;6.30;5.70;;;;;;;3.85;69.09;94435.63;5002204;28;20227;-66
2023/01/11 04:00:45;;;;;;;7.23;6.63;;;;;;;3.81;69.74;94431.63;5009812;28;20193;-66
2023/01/11 04:03:11;;;;;;;7.20;6.50;;;;;;;3.88;69.41;94433.63;5008178;28;20242;-67
2023/01/11 04:05:39;;;;;;;8.07;6.87;;;;;;;3.93;69.44;94447.06;5001779;28;20218;-67
2023/01/11 04:08:04;;;;;;;7.77;7.03;;;;;;;3.88;69.38;94438.00;5004383;28;20219;-66
2023/01/11 04:10:29;;;;;;;8.90;8.10;;;;;;;3.78;69.62;94445.72;4982541;28;20238;-66
2023/01/11 04:12:55;;;;;;;9.40;8.50;;;;;;;3.91;69.47;94440.34;5002476;28;20313;-67
2023/01/11 04:15:21;;;;;;;9.33;8.50;;;;;;;3.94;69.83;94446.13;5003089;28;20221;-67
2023/01/11 04:17:47;;;;;;;8.23;7.43;;;;;;;4.01;69.23;94453.41;4997219;28;20251;-67
2023/01/11 04:20:12;;;;;;;8.87;7.97;;;;;;;4.05;68.72;94457.41;5004806;28;20238;-66
2023/01/11 04:22:38;;;;;;;8.93;8.13;;;;;;;4.06;68.76;94464.25;4982374;28;20227;-66
2023/01/11 04:25:04;;;;;;;8.97;8.13;;;;;;;3.74;69.45;94460.75;4991241;28;20261;-66
2023/01/11 04:27:29;;;;;;;9.27;8.30;;;;;;;3.86;69.86;94466.72;5007850;28;20174;-66
2023/01/11 04:29:54;;;;;;;8.60;7.87;;;;;;;3.88;69.48;94470.03;5023879;28;20219;-66
2023/01/11 04:32:20;;;;;;;9.00;8.20;;;;;;;3.72;70.22;94469.63;5004337;28;20562;-66
2023/01/11 04:34:45;;;;;;;8.53;7.73;;;;;;;3.86;69.44;94476.31;5006130;28;20219;-67
2023/01/11 04:37:11;;;;;;;8.53;7.73;;;;;;;3.91;69.32;94474.16;5004874;28;20227;-67
2023/01/11 04:39:37;;;;;;;9.30;8.40;;;;;;;3.66;69.33;94480.50;5001096;28;20281;-66
2023/01/11 04:42:18;;;;;;;8.17;7.37;;;;;;;3.77;69.74;94483.09;4997255;28;20226;-67
2023/01/11 04:44:45;;;;;;;8.20;7.40;;;;;;;3.63;70.23;94488.53;5006459;28;20310;-67
2023/01/11 04:47:10;;;;;;;7.60;6.87;;;;;;;3.47;70.61;94484.56;5003394;28;20229;-67
2023/01/11 04:49:36;;;;;;;7.17;6.57;;;;;;;3.67;69.94;94488.19;5006598;28;20709;-67
2023/01/11 04:52:01;;;;;;;7.97;7.20;;;;;;;3.41;70.77;94485.06;5023019;28;20285;-67
2023/01/11 04:54:26;;;;;;;7.00;6.40;;;;;;;3.65;70.38;94486.66;5011940;28;20183;-67
2023/01/11 04:56:52;;;;;;;6.87;6.27;;;;;;;3.85;69.65;94493.69;4996087;28;20230;-65
2023/01/11 04:59:17;;;;;;;6.07;5.53;;;;;;;3.96;69.09;94491.03;5012140;28;20230;-66
2023/01/11 05:01:43;;;;;;;6.60;6.00;;;;;;;3.94;68.99;94492.94;5006148;28;20215;-65
2023/01/11 05:04:08;;;;;;;7.90;7.20;;;;;;;4.00;68.70;94496.81;5008131;28;20235;-65
2023/01/11 05:06:33;;;;;;;6.40;5.80;;;;;;;4.05;69.06;94502.47;5006475;28;20182;-66
2023/01/11 05:08:59;;;;;;;5.63;5.13;;;;;;;4.10;68.68;94507.31;5007052;28;20234;-65
2023/01/11 05:11:24;;;;;;;6.37;5.77;;;;;;;4.14;68.71;94506.09;5003938;28;20280;-67
2023/01/11 05:13:50;;;;;;;6.07;5.20;;;;;;;4.15;68.43;94512.97;5007909;28;20223;-66
2023/01/11 05:16:16;;;;;;;6.33;5.73;;;;;;;4.15;68.42;94518.16;5007305;28;20275;-66
2023/01/11 05:18:50;;;;;;;5.50;5.00;;;;;;;4.19;68.23;94524.75;5022349;28;20222;-65
2023/01/11 05:21:18;;;;;;;4.93;4.40;;;;;;;4.13;68.06;94520.88;5007332;28;20227;-66
2023/01/11 05:23:44;;;;;;;4.77;4.27;;;;;;;3.98;68.27;94528.16;4999571;28;20223;-65
2023/01/11 05:26:18;;;;;;;5.07;4.57;;;;;;;4.04;68.66;94520.81;5018611;28;20218;-66
2023/01/11 05:28:44;;;;;;;4.43;4.03;;;;;;;4.02;68.36;94520.13;5003222;28;20234;-66
2023/01/11 05:31:09;;;;;;;3.40;3.10;;;;;;;4.06;68.15;94516.28;5011054;28;20224;-65
2023/01/11 05:33:35;;;;;;;3.47;3.10;;;;;;;4.14;67.92;94516.50;5014601;28;20180;-66
2023/01/11 05:36:11;;;;;;;4.57;3.27;;;;;;;3.89;68.26;94515.88;5003255;28;20261;-66
2023/01/11 05:38:36;;;;;;;5.00;3.27;;;;;;;3.79;68.19;94527.97;5014397;28;20246;-65
2023/01/11 05:41:07;;;;;;;3.93;3.50;;;;;;;3.80;68.11;94529.66;5013019;28;20223;-66
2023/01/11 05:45:27;;;;;;;3.30;3.00;;;;;;;3.86;68.49;94538.72;5011898;28;20227;-66
2023/01/11 05:46:19;;;;;;;4.30;3.27;;;;;;;3.79;68.67;94529.75;5007382;28;20211;-66
2023/01/11 05:48:45;;;;;;;4.27;3.17;;;;;;;3.96;68.21;94540.47;5006861;28;20197;-66
2023/01/11 05:51:10;;;;;;;5.07;3.23;;;;;;;4.06;68.00;94537.94;5006798;28;20265;-65
2023/01/11 05:53:36;;;;;;;3.70;3.30;;;;;;;3.98;67.50;94543.78;5027516;28;20214;-67
2023/01/11 05:56:01;;;;;;;3.50;3.20;;;;;;;4.01;68.23;94547.06;5007822;28;20228;-67
2023/01/11 05:58:27;;;;;;;3.70;3.40;;;;;;;4.13;67.78;94543.47;4988660;28;20242;-67
2023/01/11 06:00:54;;;;;;;3.33;3.03;;;;;;;4.07;68.02;94550.00;5002282;28;20189;-66
2023/01/11 06:03:21;;;;;;;3.43;3.13;;;;;;;4.07;68.06;94544.81;5006300;28;20266;-66
2023/01/11 06:05:47;;;;;;;3.50;3.20;;;;;;;4.13;67.87;94548.69;5019038;28;20244;-67
2023/01/11 06:08:13;;;;;;;4.23;3.70;;;;;;;4.16;68.00;94553.63;5003841;28;20224;-66
2023/01/11 06:10:39;;;;;;;4.27;3.60;;;;;;;4.18;68.41;94562.16;4994679;28;20211;-66
2023/01/11 06:15:48;;;;;;;4.00;3.70;;;;;;;4.18;68.13;94569.97;5001053;28;20183;-66
2023/01/11 06:18:14;;;;;;;3.67;3.37;;;;;;;4.11;67.62;94572.22;5001290;28;20182;-67
2023/01/11 06:20:39;;;;;;;4.03;3.50;;;;;;;4.04;67.81;94578.88;5001398;28;20284;-66
2023/01/11 06:23:05;;;;;;;4.10;3.70;;;;;;;3.86;69.22;94588.16;5003488;28;20211;-65
2023/01/11 06:25:31;;;;;;;3.90;3.50;;;;;;;3.74;70.18;94598.56;5020372;28;20261;-65
2023/01/11 06:27:58;;;;;;;4.00;3.60;;;;;;;3.61;70.22;94590.06;5019600;28;20179;-66
2023/01/11 06:30:27;;;;;;;3.93;3.23;;;;;;;3.76;69.96;94601.84;5018489;28;20214;-67
2023/01/11 06:32:52;;;;;;;3.77;3.47;;;;;;;3.98;69.55;94600.16;5005936;28;20235;-64
2023/01/11 06:35:17;;;;;;;4.37;3.97;;;;;;;4.20;68.13;94602.72;5000906;28;20234;-65
2023/01/11 06:37:43;;;;;;;3.93;3.53;;;;;;;4.26;67.75;94601.41;4997255;28;20227;-65
2023/01/11 06:40:09;;;;;;;4.00;3.60;;;;;;;4.51;67.11;94599.41;5007046;28;20283;-66
2023/01/11 06:42:34;;;;;;;5.10;4.00;;;;;;;4.62;66.87;94599.34;4989942;28;20227;-65
2023/01/11 06:45:00;;;;;;;3.97;3.57;;;;;;;4.70;66.79;94596.94;5006099;28;20298;-67
2023/01/11 06:47:25;;;;;;;4.13;3.17;;;;;;;4.80;66.34;94590.00;5006070;28;20285;-67
2023/01/11 06:49:51;;;;;;;3.43;3.13;;;;;;;4.89;65.68;94605.84;4993594;28;20230;-67
2023/01/11 06:52:16;;;;;;;4.43;3.70;;;;;;;4.95;65.37;94607.94;5023751;28;20225;-66
2023/01/11 06:54:42;;;;;;;3.23;2.97;;;;;;;5.11;64.88;94610.91;5006956;28;20206;-67
2023/01/11 06:57:07;;;;;;;3.43;3.13;;;;;;;4.94;64.99;94616.69;5013504;28;20280;-68
2023/01/11 06:59:32;;;;;;;3.20;2.90;;;;;;;5.11;64.23;94610.09;5002638;28;20227;-67
2023/01/11 07:01:58;;;;;;;3.03;2.73;;;;;;;5.11;63.91;94618.75;5010646;28;20230;-66
2023/01/11 07:04:23;;;;;;;2.90;2.60;;;;;;;4.90;64.25;94629.16;5014564;28;20231;-67
2023/01/11 07:06:53;;;;;;;2.63;2.10;;;;;;;4.84;63.47;94624.47;5008574;28;20179;-67
2023/01/11 07:09:18;;;;;;;2.83;2.40;;;;;;;5.04;63.38;94633.22;5004803;28;20226;-67
2023/01/11 07:11:44;;;;;;;2.30;2.10;;;;;;;5.07;62.96;94639.00;5005050;28;20258;-69
2023/01/11 07:14:11;;;;;;;3.03;2.40;;;;;;;5.11;62.88;94642.19;5024118;28;20230;-68
2023/01/11 07:16:36;;;;;;;3.43;2.70;;;;;;;5.08;63.08;94645.06;5000083;28;20235;-69
2023/01/11 07:19:01;;;;;;;3.30;2.70;;;;;;;5.16;62.26;94645.25;5006113;28;20194;-69
2023/01/11 07:21:27;;;;;;;2.60;2.03;;;;;;;5.11;62.03;94654.41;5006290;28;20202;-71
2023/01/11 07:23:52;;;;;;;2.70;2.10;;;;;;;5.13;61.74;94645.47;4990467;28;20218;-69
2023/01/11 07:29:40;;;;;;;4.13;2.10;;;;;;;5.13;61.56;94653.28;5006970;28;20243;-68
2023/01/11 07:32:07;;;;;;;2.70;2.30;;;;;;;5.12;62.21;94654.25;5005907;28;20234;-69
2023/01/11 07:34:33;;;;;;;2.30;2.10;;;;;;;5.06;61.72;94650.38;5004409;28;20300;-69
2023/01/11 07:36:58;;;;;;;2.40;2.20;;;;;;;5.21;61.15;94663.94;5019973;28;20206;-69
2023/01/11 07:39:23;;;;;;;3.00;2.70;;;;;;;5.38;61.33;94665.13;5004528;28;20246;-68
2023/01/11 07:44:33;;;;;;;2.60;2.33;;;;;;;5.60;60.06;94650.28;5006617;28;20245;-68
2023/01/11 07:46:58;;;;;;;2.40;2.20;;;;;;;5.51;60.50;94676.19;5002512;28;20222;-68
2023/01/11 07:49:24;;;;;;;3.10;2.50;;;;;;;5.56;60.20;94669.72;4998330;28;20239;-67
2023/01/11 07:51:50;;;;;;;3.40;3.10;;;;;;;5.25;61.11;94672.31;4982486;28;20195;-67
2023/01/11 07:54:16;;;;;;;4.37;3.63;;;;;;;5.45;61.81;94679.31;5024329;28;20206;-68
2023/01/11 07:56:42;;;;;;;3.93;2.80;;;;;;;5.52;61.15;94677.81;5005380;28;20238;-67
2023/01/11 07:59:08;;;;;;;2.40;2.20;;;;;;;5.67;60.07;94677.50;5018011;28;20309;-67
2023/01/11 08:01:34;;;;;;;3.10;2.60;;;;;;;5.73;60.04;94683.00;5006381;28;20218;-68
2023/01/11 08:03:59;;;;;;;2.90;2.40;;;;;;;5.63;60.18;94689.13;5001882;28;20233;-69
2023/01/11 08:06:24;;;;;;;3.10;2.73;;;;;;;5.77;59.74;94687.97;5006292;28;20294;-66
2023/01/11 08:08:50;;;;;;;2.70;2.17;;;;;;;5.82;59.26;94709.25;5003578;28;20219;-67
2023/01/11 08:16:43;;;;;;;2.93;2.53;;;;;;;5.38;60.69;94711.25;5005229;28;20238;-67
2023/01/11 08:19:08;;;;;;;3.77;2.23;;;;;;;5.72;59.58;94725.72;5015872;28;20219;-67
2023/01/11 08:21:34;;;;;;;2.27;1.70;;;;;;;5.70;59.18;94721.56;5003208;28;20355;-68
2023/01/11 08:23:59;;;;;;;2.07;1.87;;;;;;;5.71;58.77;94724.03;5013395;28;20219;-69
2023/01/11 08:26:26;;;;;;;4.20;2.30;;;;;;;5.84;58.94;94743.88;4996745;28;20302;-68
2023/01/11 08:28:53;;;;;;;3.40;2.80;;;;;;;5.90;58.71;94743.38;4999381;28;20238;-67
2023/01/11 08:31:20;;;;;;;5.63;4.23;;;;;;;5.91;59.14;94745.84;4982829;28;20313;-67
2023/01/11 08:33:45;;;;;;;4.53;3.27;;;;;;;5.83;59.38;94745.69;5019858;28;20198;-68
2023/01/11 08:36:11;;;;;;;4.00;2.30;;;;;;;5.92;59.22;94744.06;5007440;28;20208;-68
2023/01/11 08:38:38;;;;;;;3.63;3.07;;;;;;;6.06;58.61;94750.75;5005760;28;20231;-69
2023/01/11 08:41:14;;;;;;;3.37;2.87;;;;;;;6.08;58.37;94754.06;5008289;28;20261;-67
2023/01/11 08:43:40;;;;;;;2.70;2.50;;;;;;;6.12;58.40;94753.69;5013764;28;20233;-67
2023/01/11 08:46:06;;;;;;;2.90;2.60;;;;;;;6.22;57.77;94750.28;5005198;28;20234;-68
2023/01/11 08:48:32;;;;;;;4.00;2.70;;;;;;;6.04;57.64;94753.50;5002438;28;20183;-68
2023/01/11 08:50:57;;;;;;;3.83;2.83;;;;;;;6.12;58.09;94758.91;5008580;28;20226;-67
2023/01/11 08:53:23;;;;;;;3.67;2.70;;;;;;;6.11;57.51;94766.84;5000159;28;20285;-69
2023/01/11 08:55:50;;;;;;;3.17;2.80;;;;;;;6.01;58.34;94766.78;5004668;28;20229;-67
2023/01/11 08:58:15;;;;;;;2.87;2.43;;;;;;;6.15;57.49;94763.84;5002503;28;20222;-66
2023/01/11 09:00:41;;;;;;;3.00;2.37;;;;;;;6.05;57.27;94768.19;5019316;28;20179;-68
2023/01/11 09:03:07;;;;;;;4.87;2.97;;;;;;;5.81;58.21;94768.47;5001871;28;20242;-69
2023/01/11 09:05:33;;;;;;;3.30;3.00;;;;;;;5.78;58.78;94763.50;5000580;28;20294;-68
2023/01/11 09:07:58;;;;;;;2.67;2.40;;;;;;;6.05;57.80;94773.41;5017991;28;20231;-68
2023/01/11 09:10:25;;;;;;;3.03;2.63;;;;;;;6.01;58.22;94772.00;5001329;28;20227;-68
2023/01/11 09:12:52;;;;;;;3.80;2.97;;;;;;;5.88;58.80;94772.22;5007162;28;20196;-68
2023/01/11 09:15:17;;;;;;;3.80;2.90;;;;;;;6.17;58.79;94781.97;5001730;28;20264;-67
2023/01/11 09:17:44;;;;;;;3.70;3.13;;;;;;;6.21;57.69;94772.13;5003441;28;20359;-70
2023/01/11 09:20:10;;;;;;;4.27;3.10;;;;;;;6.33;57.20;94771.06;5017948;28;20223;-68
2023/01/11 09:22:36;;;;;;;3.80;2.80;;;;;;;6.06;57.25;94771.63;4985729;28;20296;-68
2023/01/11 09:25:02;;;;;;;4.03;3.30;;;;;;;5.75;59.08;94769.81;4990157;28;20198;-66
2023/01/11 09:27:28;;;;;;;3.07;2.83;;;;;;;6.15;57.88;94781.31;4998463;28;20187;-66
2023/01/11 09:29:53;;;;;;;2.97;2.67;;;;;;;6.05;58.36;94778.66;4998264;28;20311;-66
2023/01/11 09:32:19;;;;;;;4.80;2.40;;;;;;;6.00;58.92;94780.81;4984828;28;20228;-66
2023/01/11 09:34:46;;;;;;;3.23;2.30;;;;;;;6.24;58.30;94770.06;5005842;28;20227;-67
2023/01/11 09:37:11;;;;;;;3.23;2.13;;;;;;;6.43;57.31;94771.91;4988015;28;20326;-67
2023/01/11 09:39:38;;;;;;;3.43;2.27;;;;;;;6.51;56.56;94777.31;5009772;28;20270;-68
2023/01/11 09:42:21;;;;;;;2.77;2.00;;;;;;;6.49;57.32;94775.78;5025636;28;20269;-67
2023/01/11 09:44:55;;;;;;;2.10;1.90;;;;;;;6.47;56.44;94775.09;5024249;28;20340;-68
2023/01/11 09:47:40;;;;;;;2.83;1.97;;;;;;;6.19;56.87;94775.66;5008342;28;20213;-68
2023/01/11 09:50:30;;;;;;;3.60;2.20;;;;;;;6.42;57.09;94772.06;5006823;28;20257;-68
2023/01/11 09:52:59;;;;;;;3.07;2.10;;;;;;;6.47;57.27;94772.47;4997358;28;20259;-68
2023/01/11 09:55:39;;;;;;;4.40;2.60;;;;;;;6.48;57.66;94769.75;4990915;28;20222;-68
2023/01/11 09:58:27;;;;;;;2.67;2.27;;;;;;;6.31;57.74;94783.44;5014480;28;20211;-68
2023/01/11 10:01:26;;;;;;;3.47;2.50;;;;;;;6.45;57.24;94785.69;5006380;28;20209;-68
2023/01/11 10:04:06;;;;;;;2.60;1.80;;;;;;;6.53;56.69;94778.00;5007212;28;20234;-71
2023/01/11 10:06:41;;;;;;;3.37;2.20;;;;;;;6.49;56.51;94778.41;5018090;28;20186;-69
2023/01/11 10:09:40;;;;;;;3.30;2.27;;;;;;;6.40;56.17;94786.06;4996677;28;20255;-70
2023/01/11 10:12:36;;;;;;;3.23;2.07;;;;;;;6.07;56.83;94786.34;5004240;28;20222;-70
2023/01/11 10:15:22;;;;;;;2.67;2.27;;;;;;;6.27;56.39;94787.25;5001185;28;20317;-69
2023/01/11 10:18:13;;;;;;;3.03;2.07;;;;;;;6.24;56.87;94782.31;5012140;28;20223;-70
2023/01/11 10:20:45;;;;;;;1.70;1.60;;;;;;;6.30;55.87;94781.78;5014055;28;20252;-70
2023/01/11 10:23:20;;;;;;;1.80;1.60;;;;;;;6.19;55.33;94780.06;5008438;28;20233;-67
2023/01/11 10:25:50;;;;;;;1.93;1.73;;;;;;;6.41;55.43;94786.88;5010580;28;20231;-68
2023/01/11 10:28:49;;;;;;;3.00;1.43;;;;;;;6.56;55.20;94790.81;5003785;28;20314;-69
2023/01/11 10:31:48;;;;;;;1.83;1.40;;;;;;;6.69;55.17;94776.69;5024999;28;20261;-69
2023/01/11 10:42:52;;;;;;;2.07;1.80;;;;;;;7.16;52.47;94780.31;5001967;28;20221;-68
2023/01/11 10:45:26;;;;;;;2.57;2.10;;;;;;;7.24;52.07;94772.63;4997918;28;20242;-68
2023/01/11 10:48:26;;;;;;;8.77;1.73;;;;;;;7.14;52.14;94774.41;5005177;28;20213;-68
2023/01/11 10:50:52;;;;;;;2.73;1.40;;;;;;;7.01;52.04;94766.81;5000638;28;20309;-69
2023/01/11 10:53:40;;;;;;;2.60;1.70;;;;;;;7.31;51.75;94769.47;5007731;28;20237;-69
2023/01/11 10:56:16;;;;;;;2.20;1.60;;;;;;;7.14;52.41;94770.97;5006046;28;20233;-68
2023/01/11 10:58:53;;;;;;;2.70;2.40;;;;;;;7.10;52.26;94761.75;5019967;28;20223;-68
2023/01/11 11:01:44;;;;;;;2.87;1.70;;;;;;;7.24;52.25;94766.56;5017529;28;20226;-68
2023/01/11 11:04:43;;;;;;;2.27;1.93;;;;;;;7.18;52.68;94759.25;5016143;28;20245;-69
2023/01/11 11:07:16;;;;;;;2.87;1.80;;;;;;;7.41;52.39;94754.59;5020479;28;20230;-69
2023/01/11 11:09:44;;;;;;;4.47;2.07;;;;;;;7.66;51.01;94755.78;5014661;28;20335;-69
2023/01/11 11:12:25;;;;;;;1.83;1.73;;;;;;;7.44;50.65;94756.94;5023390;28;20265;-69
2023/01/11 11:15:02;;;;;;;2.07;1.80;;;;;;;7.36;50.38;94754.19;5003733;28;20237;-69
2023/01/11 11:17:35;;;;;;;3.67;2.00;;;;;;;7.54;50.68;94755.13;5003069;28;20258;-69
2023/01/11 11:20:20;;;;;;;2.23;1.80;;;;;;;7.37;49.67;94755.81;5003723;28;20228;-69
2023/01/11 11:22:49;;;;;;;2.20;2.00;;;;;;;7.21;51.41;94767.66;5017717;28;20586;-68
2023/01/11 11:25:21;;;;;;;2.53;1.50;;;;;;;7.27;49.75;94769.75;4998152;28;20330;-66
2023/01/11 11:27:51;;;;;;;4.47;1.90;;;;;;;7.74;50.11;94761.16;4977923;28;20203;-68
2023/01/11 11:30:45;;;;;;;1.83;1.63;;;;;;;7.63;48.70;94764.75;4998912;28;20306;-66
2023/01/11 11:33:36;;;;;;;1.80;1.70;;;;;;;7.71;47.97;94769.28;4968612;28;20226;-67
2023/01/11 11:36:08;;;;;;;1.77;1.60;;;;;;;7.64;48.50;94766.38;4952832;28;20223;-68
2023/01/11 11:38:39;;;;;;;2.00;1.80;;;;;;;7.12;50.47;94775.50;4945443;28;20220;-67
2023/01/11 11:41:09;;;;;;;3.53;2.30;;;;;;;7.32;51.41;94779.75;4966846;28;20233;-67
2023/01/11 11:43:37;;;;;;;2.07;1.90;;;;;;;6.88;52.04;94781.13;4951183;28;20268;-67
2023/01/11 11:46:18;;;;;;;3.23;2.40;;;;;;;7.11;52.00;94779.06;4966746;28;20196;-67
2023/01/11 11:49:04;;;;;;;2.83;2.50;;;;;;;6.95;52.27;94785.69;4964443;28;20620;-67
2023/01/11 11:51:30;;;;;;;3.57;2.67;;;;;;;7.09;51.09;94781.00;4952397;28;20231;-68
2023/01/11 11:53:56;;;;;;;2.20;1.80;;;;;;;6.95;49.77;94783.06;4951334;28;20234;-68
2023/01/11 11:56:31;;;;;;;2.30;2.10;;;;;;;7.14;49.66;94778.81;4952683;28;20232;-67
2023/01/11 11:58:58;;;;;;;2.63;2.43;;;;;;;7.34;49.79;94777.03;4961821;28;20224;-67
2023/01/11 12:01:36;;;;;;;5.77;2.63;;;;;;;7.28;50.20;94779.22;4963129;28;20232;-68
2023/01/11 12:04:12;;;;;;;2.40;2.20;;;;;;;7.30;49.72;94776.47;4963855;28;20239;-67
2023/01/11 12:06:41;;;;;;;3.90;2.67;;;;;;;7.40;50.06;94779.06;4939115;28;20243;-70
2023/01/11 12:09:32;;;;;;;2.83;2.57;;;;;;;7.45;50.15;94782.09;4959895;28;20279;-69
2023/01/11 12:11:58;;;;;;;2.80;2.57;;;;;;;7.13;51.01;94787.59;4942462;28;20244;-68
2023/01/11 12:14:34;;;;;;;3.37;2.50;;;;;;;6.96;51.96;94784.69;5001448;28;20223;-68
2023/01/11 12:17:19;;;;;;;3.63;3.00;;;;;;;6.88;52.68;94792.41;5020206;28;20314;-68
2023/01/11 12:19:46;;;;;;;4.17;3.23;;;;;;;6.99;52.27;94787.03;5002602;28;20236;-68
2023/01/11 12:22:23;;;;;;;4.07;2.97;;;;;;;6.79;52.01;94793.19;4986399;28;20222;-69
2023/01/11 12:25:07;;;;;;;2.87;2.20;;;;;;;6.84;50.04;94788.38;5020391;28;20205;-69
2023/01/11 12:27:41;;;;;;;2.57;2.30;;;;;;;6.93;49.86;94790.22;5015035;28;20223;-68
2023/01/11 12:30:28;;;;;;;3.43;3.10;;;;;;;6.96;49.83;94794.34;5004729;28;20278;-69
2023/01/11 12:33:09;;;;;;;4.93;2.93;;;;;;;6.71;50.35;94803.47;5005647;28;20226;-68
2023/01/11 12:35:39;;;;;;;4.17;3.40;;;;;;;6.83;51.14;94800.63;4983824;28;21223;-68
2023/01/11 12:38:17;;;;;;;4.57;3.00;;;;;;;6.68;52.54;94796.72;4993602;28;20258;-68
2023/01/11 12:41:07;;;;;;;3.50;3.17;;;;;;;6.59;53.36;94808.81;5016543;28;20227;-69